createdAt,value
2019-05-01T08:21:30.670Z,14.20
2019-05-01T08:24:00.484Z,14.30
2019-05-01T08:26:30.003Z,14.30
2019-05-01T08:29:06.914Z,14.30
2019-05-01T08:31:39.981Z,14.40
2019-05-01T08:34:14.096Z,14.50
2019-05-01T08:36:47.237Z,14.60
2019-05-01T08:39:14.703Z,14.60
2019-05-01T08:41:44.219Z,14.70
2019-05-01T08:44:14.035Z,14.80
2019-05-01T08:46:46.962Z,14.90
2019-05-01T08:49:18.000Z,15.00
2019-05-01T08:51:47.391Z,15.00
2019-05-01T08:54:16.861Z,15.10
2019-05-01T08:56:46.464Z,15.10
2019-05-01T08:59:19.395Z,15.20
2019-05-01T09:01:50.621Z,15.20
2019-05-01T09:04:18.862Z,15.30
2019-05-01T09:06:48.464Z,15.40
2019-05-01T09:09:17.949Z,15.50
2019-05-01T09:11:47.388Z,15.40
2019-05-01T09:14:16.839Z,15.40
2019-05-01T09:16:46.607Z,15.40
2019-05-01T09:19:16.210Z,15.50
2019-05-01T09:21:45.966Z,15.50
2019-05-01T09:24:15.475Z,15.50
2019-05-01T09:27:03.224Z,15.50
2019-05-01T09:29:40.274Z,15.50
2019-05-01T09:32:11.944Z,15.50
2019-05-01T09:34:41.461Z,15.50
2019-05-01T09:37:11.327Z,15.60
2019-05-01T09:39:41.075Z,15.60
2019-05-01T09:42:10.976Z,15.70
2019-05-01T09:44:40.640Z,15.80
2019-05-01T09:47:10.908Z,15.80
2019-05-01T09:49:40.364Z,15.80
2019-05-01T09:52:14.580Z,15.90
2019-05-01T09:54:46.809Z,16.00
2019-05-01T09:57:16.778Z,16.00
2019-05-01T09:59:46.227Z,16.00
2019-05-01T10:02:15.670Z,16.00
2019-05-01T10:04:45.115Z,16.00
2019-05-01T10:07:14.559Z,16.00
2019-05-01T10:09:47.259Z,16.10
2019-05-01T10:12:16.529Z,16.10
2019-05-01T10:14:46.252Z,16.20
2019-05-01T10:17:15.689Z,16.20
2019-05-01T10:19:45.228Z,16.20
2019-05-01T10:22:14.675Z,16.30
2019-05-01T10:24:44.136Z,16.30
2019-05-01T10:27:17.184Z,16.20
2019-05-01T10:30:01.000Z,16.20
2019-05-01T10:32:29.590Z,16.20
2019-05-01T10:35:00.789Z,16.20
2019-05-01T10:37:33.711Z,16.20
2019-05-01T10:40:02.597Z,16.20
2019-05-01T10:42:32.319Z,16.20
2019-05-01T10:45:02.238Z,16.30
2019-05-01T10:47:31.673Z,16.40
2019-05-01T10:50:01.210Z,16.50
2019-05-01T10:52:32.049Z,16.40
2019-05-01T10:55:01.715Z,16.50
2019-05-01T10:57:35.242Z,16.50
2019-05-01T11:00:02.692Z,16.50
2019-05-01T11:02:32.856Z,16.60
2019-05-01T11:05:02.854Z,16.70
2019-05-01T11:07:32.790Z,16.70
2019-05-01T11:10:02.534Z,16.80
2019-05-01T11:12:33.125Z,16.80
2019-05-01T11:15:02.916Z,16.90
2019-05-01T11:17:32.456Z,16.90
2019-05-01T11:20:02.039Z,16.90
2019-05-01T11:22:31.762Z,17.00
2019-05-01T11:25:01.319Z,17.10
2019-05-01T11:27:32.028Z,17.10
2019-05-01T11:30:01.598Z,17.20
2019-05-01T11:32:33.312Z,17.30
2019-05-01T11:35:13.874Z,17.40
2019-05-01T11:37:45.301Z,17.40
2019-05-01T11:40:17.457Z,17.50
2019-05-01T11:42:47.184Z,17.50
2019-05-01T11:45:17.032Z,17.50
2019-05-01T11:47:46.588Z,17.50
2019-05-01T11:50:16.566Z,17.50
2019-05-01T11:52:46.030Z,17.60
2019-05-01T11:55:15.574Z,17.70
2019-05-01T11:57:45.061Z,17.80
2019-05-01T12:00:16.845Z,17.80
2019-05-01T12:02:46.591Z,17.90
2019-05-01T12:05:16.215Z,17.90
2019-05-01T12:07:45.955Z,17.80
2019-05-01T12:10:16.662Z,17.80
2019-05-01T12:12:46.159Z,17.70
2019-05-01T12:15:16.057Z,17.70
2019-05-01T12:17:47.343Z,17.90
2019-05-01T12:20:18.570Z,17.90
2019-05-01T12:22:51.238Z,18.00
2019-05-01T12:25:19.755Z,18.20
2019-05-01T12:27:49.437Z,18.30
2019-05-01T12:30:20.319Z,18.40
2019-05-01T12:32:49.902Z,18.40
2019-05-01T12:35:19.354Z,18.40
2019-05-01T12:37:48.980Z,18.30
2019-05-01T12:40:20.471Z,18.40
2019-05-01T12:42:50.068Z,18.60
2019-05-01T12:45:19.780Z,18.80
2019-05-01T12:47:51.003Z,18.90
2019-05-01T12:50:20.936Z,19.00
2019-05-01T12:52:52.105Z,19.00
2019-05-01T12:55:26.181Z,19.00
2019-05-01T12:57:55.737Z,18.90
2019-05-01T13:00:43.371Z,18.80
2019-05-01T13:03:12.960Z,18.60
2019-05-01T13:05:42.603Z,18.50
2019-05-01T13:10:13.246Z,18.30
2019-05-01T13:12:44.593Z,18.40
2019-05-01T13:15:15.819Z,18.30
2019-05-01T13:17:46.674Z,18.30
2019-05-01T13:20:17.407Z,18.30
2019-05-01T13:22:48.312Z,18.20
2019-05-01T13:25:20.026Z,18.10
2019-05-01T13:27:56.818Z,18.20
2019-05-01T13:30:39.139Z,18.30
2019-05-01T13:33:09.645Z,18.50
2019-05-01T13:35:40.931Z,18.70
2019-05-01T13:38:13.088Z,18.80
2019-05-01T13:40:43.624Z,18.90
2019-05-01T13:43:14.771Z,19.00
2019-05-01T13:45:45.247Z,19.10
2019-05-01T13:48:20.675Z,19.20
2019-05-01T13:50:51.637Z,19.30
2019-05-01T13:53:21.970Z,19.50
2019-05-01T13:55:53.451Z,19.50
2019-05-01T13:58:23.879Z,19.60
2019-05-01T14:00:54.313Z,19.60
2019-05-01T14:03:24.675Z,19.70
2019-05-01T14:05:55.208Z,19.60
2019-05-01T14:11:03.409Z,19.90
2019-05-01T14:13:33.620Z,19.90
2019-05-01T14:16:04.156Z,19.90
2019-05-01T14:18:34.458Z,19.80
2019-05-01T14:21:13.662Z,19.70
2019-05-01T14:24:01.803Z,19.70
2019-05-01T14:26:33.245Z,19.80
2019-05-01T14:29:04.721Z,19.90
2019-05-01T14:31:35.569Z,19.90
2019-05-01T14:34:06.875Z,19.90
2019-05-01T14:36:37.849Z,19.90
2019-05-01T14:39:09.003Z,19.90
2019-05-01T14:41:40.996Z,20.00
2019-05-01T14:44:11.386Z,20.10
2019-05-01T14:46:41.815Z,20.20
2019-05-01T14:49:12.104Z,20.30
2019-05-01T14:51:42.593Z,20.30
2019-05-01T14:54:13.311Z,20.40
2019-05-01T14:56:43.689Z,20.40
2019-05-01T14:59:14.273Z,20.30
2019-05-01T15:01:47.253Z,20.20
2019-05-01T15:04:17.111Z,20.20
2019-05-01T15:06:49.538Z,20.20
2019-05-01T15:09:19.866Z,20.20
2019-05-01T15:11:50.262Z,20.20
2019-05-01T15:14:52.039Z,20.20
2019-05-01T15:17:25.433Z,20.10
2019-05-01T15:19:59.836Z,20.10
2019-05-01T15:22:30.226Z,20.10
2019-05-01T15:25:00.876Z,20.10
2019-05-01T15:27:31.258Z,20.00
2019-05-01T15:30:01.584Z,19.90
2019-05-01T15:32:33.123Z,19.90
2019-05-01T15:35:03.542Z,19.90
2019-05-01T15:37:35.417Z,19.90
2019-05-01T15:40:19.893Z,19.90
2019-05-01T15:43:02.588Z,19.90
2019-05-01T15:45:32.896Z,19.90
2019-05-01T15:48:03.646Z,19.80
2019-05-01T15:50:33.939Z,19.80
2019-05-01T15:53:04.280Z,19.70
2019-05-01T15:55:34.950Z,19.80
2019-05-01T15:58:05.298Z,19.80
2019-05-01T16:00:35.699Z,19.80
2019-05-01T16:03:06.205Z,19.90
2019-05-01T16:05:37.259Z,19.90
2019-05-01T16:08:09.776Z,19.90
2019-05-01T16:10:47.503Z,19.80
2019-05-01T16:13:17.914Z,19.80
2019-05-01T16:15:48.273Z,19.70
2019-05-01T16:18:18.815Z,19.60
2019-05-01T16:20:49.684Z,19.60
2019-05-01T16:23:20.164Z,19.60
2019-05-01T16:25:50.570Z,19.50
2019-05-01T16:28:21.048Z,19.50
2019-05-01T16:30:51.940Z,19.50
2019-05-01T16:33:22.350Z,19.50
2019-05-01T16:35:52.932Z,19.40
2019-05-01T16:38:30.606Z,19.30
2019-05-01T16:41:04.364Z,19.30
2019-05-01T16:43:35.515Z,19.30
2019-05-01T16:46:06.796Z,19.30
2019-05-01T16:48:37.545Z,19.20
2019-05-01T16:51:07.983Z,19.20
2019-05-01T16:53:38.482Z,19.10
2019-05-01T16:56:08.899Z,19.10
2019-05-01T16:58:39.869Z,19.10
2019-05-01T17:01:15.243Z,19.10
2019-05-01T17:04:19.611Z,19.10
2019-05-01T17:07:15.046Z,19.10
2019-05-01T17:10:10.259Z,19.10
2019-05-01T17:12:46.121Z,19.00
2019-05-01T17:15:21.172Z,19.10
2019-05-01T17:17:51.622Z,19.00
2019-05-01T17:20:24.373Z,18.90
2019-05-01T17:22:55.036Z,18.90
2019-05-01T17:25:26.008Z,18.80
2019-05-01T17:27:56.517Z,18.80
2019-05-01T17:30:49.597Z,18.90
2019-05-01T17:33:21.972Z,18.90
2019-05-01T17:35:52.673Z,18.80
2019-05-01T17:38:23.361Z,18.80
2019-05-01T17:40:54.103Z,18.80
2019-05-01T17:43:24.804Z,18.80
2019-05-01T17:45:55.265Z,18.80
2019-05-01T17:48:28.891Z,18.70
2019-05-01T17:51:00.027Z,18.70
2019-05-01T17:53:31.283Z,18.60
2019-05-01T17:56:02.424Z,18.60
2019-05-01T17:58:32.849Z,18.50
2019-05-01T18:01:27.698Z,18.40
2019-05-01T18:04:07.560Z,18.30
2019-05-01T18:06:42.018Z,18.30
2019-05-01T18:09:13.401Z,18.10
2019-05-01T18:11:47.303Z,18.10
2019-05-01T18:14:16.766Z,18.00
2019-05-01T18:16:47.615Z,17.90
2019-05-01T18:19:18.043Z,17.90
2019-05-01T18:21:54.835Z,17.80
2019-05-01T18:24:58.388Z,17.80
2019-05-01T18:27:59.175Z,17.70
2019-05-01T18:30:37.386Z,17.60
2019-05-01T18:33:07.984Z,17.60
2019-05-01T18:35:38.875Z,17.50
2019-05-01T18:38:28.351Z,17.40
2019-05-01T18:41:03.644Z,17.40
2019-05-01T18:43:34.088Z,17.30
2019-05-01T18:46:08.123Z,17.30
2019-05-01T18:48:39.086Z,17.20
2019-05-01T18:51:10.568Z,17.20
2019-05-01T18:53:41.442Z,17.10
2019-05-01T18:56:12.957Z,17.10
2019-05-01T18:58:43.383Z,17.00
2019-05-01T19:01:14.376Z,16.90
2019-05-01T19:03:44.990Z,16.90
2019-05-01T19:06:15.489Z,16.80
2019-05-01T19:08:46.105Z,16.70
2019-05-01T19:11:16.580Z,16.70
2019-05-01T19:13:47.835Z,16.60
2019-05-01T19:16:18.396Z,16.60
2019-05-01T19:18:49.211Z,16.40
2019-05-01T19:21:23.717Z,16.40
2019-05-01T19:23:54.168Z,16.30
2019-05-01T19:26:24.948Z,16.20
2019-05-01T19:28:55.460Z,16.10
2019-05-01T19:31:25.843Z,16.00
2019-05-01T19:33:56.247Z,16.00
2019-05-01T19:36:26.701Z,16.00
2019-05-01T19:38:57.330Z,15.90
2019-05-01T19:41:27.937Z,15.90
2019-05-01T19:43:58.431Z,15.80
2019-05-01T19:46:28.847Z,15.80
2019-05-01T19:48:59.282Z,15.80
2019-05-01T19:51:29.738Z,15.70
2019-05-01T19:54:00.617Z,15.70
2019-05-01T19:56:31.010Z,15.60
2019-05-01T19:59:01.730Z,15.60
2019-05-01T20:01:32.613Z,15.50
2019-05-01T20:04:08.370Z,15.50
2019-05-01T20:06:38.599Z,15.40
2019-05-01T20:09:09.792Z,15.40
2019-05-01T20:11:40.630Z,15.30
2019-05-01T20:14:10.971Z,15.20
2019-05-01T20:16:42.718Z,15.20
2019-05-01T20:19:13.228Z,15.10
2019-05-01T20:21:44.065Z,15.10
2019-05-01T20:24:14.378Z,15.00
2019-05-01T20:26:44.760Z,15.00
2019-05-01T20:29:15.046Z,15.00
2019-05-01T20:31:45.719Z,14.90
2019-05-01T20:34:17.281Z,14.90
2019-05-01T20:36:48.173Z,14.90
2019-05-01T20:39:19.117Z,14.90
2019-05-01T20:41:49.403Z,14.90
2019-05-01T20:44:24.056Z,14.80
2019-05-01T20:46:51.768Z,14.80
2019-05-01T20:49:22.113Z,14.70
2019-05-01T20:51:52.714Z,14.70
2019-05-01T20:54:23.001Z,14.70
2019-05-01T20:57:00.788Z,14.60
2019-05-01T20:59:35.240Z,14.60
2019-05-01T21:02:07.678Z,14.60
2019-05-01T21:05:06.116Z,14.50
2019-05-01T21:07:40.596Z,14.50
2019-05-01T21:10:23.900Z,14.50
2019-05-01T21:12:43.117Z,14.40
2019-05-01T21:15:13.994Z,14.40
2019-05-01T21:17:48.799Z,14.40
2019-05-01T21:20:16.199Z,14.30
2019-05-01T21:22:46.489Z,14.30
2019-05-01T21:25:17.773Z,14.30
2019-05-01T21:27:48.391Z,14.30
2019-05-01T21:30:20.845Z,14.20
2019-05-01T21:32:51.131Z,14.20
2019-05-01T21:35:21.447Z,14.10
2019-05-01T21:37:52.015Z,14.10
2019-05-01T21:40:23.087Z,14.10
2019-05-01T21:42:55.790Z,14.10
2019-05-01T21:45:25.665Z,14.10
2019-05-01T21:47:55.943Z,14.10
2019-05-01T21:50:26.776Z,14.00
2019-05-01T21:52:58.081Z,14.00
2019-05-01T21:55:30.370Z,13.90
2019-05-01T21:58:00.812Z,13.80
2019-05-01T22:00:36.766Z,13.80
2019-05-01T22:03:09.054Z,13.80
2019-05-01T22:05:40.891Z,13.80
2019-05-01T22:08:11.587Z,13.70
2019-05-01T22:10:51.680Z,13.70
2019-05-01T22:13:13.953Z,13.70
2019-05-01T22:15:48.999Z,13.60
2019-05-01T22:18:24.703Z,13.60
2019-05-01T22:21:03.719Z,13.50
2019-05-01T22:23:41.548Z,13.50
2019-05-01T22:26:12.051Z,13.50
2019-05-01T22:28:54.848Z,13.40
2019-05-01T22:31:52.895Z,13.40
2019-05-01T22:34:49.873Z,13.40
2019-05-01T22:37:20.202Z,13.30
2019-05-01T22:39:55.594Z,13.30
2019-05-01T22:42:25.886Z,13.30
2019-05-01T22:44:56.098Z,13.20
2019-05-01T22:47:26.549Z,13.20
2019-05-01T22:49:57.994Z,13.20
2019-05-01T22:52:28.323Z,13.10
2019-05-01T22:54:58.599Z,13.10
2019-05-01T22:57:29.374Z,13.00
2019-05-01T22:59:59.651Z,13.00
2019-05-01T23:02:39.923Z,13.00
2019-05-01T23:05:10.799Z,12.90
2019-05-01T23:07:41.313Z,12.90
2019-05-01T23:10:11.969Z,12.90
2019-05-01T23:12:42.287Z,12.80
2019-05-01T23:15:18.061Z,12.80
2019-05-01T23:17:48.378Z,12.70
2019-05-01T23:20:18.666Z,12.70
2019-05-01T23:22:48.906Z,12.70
2019-05-01T23:25:19.520Z,12.70
2019-05-01T23:27:50.116Z,12.60
2019-05-01T23:30:22.382Z,12.60
2019-05-01T23:32:52.695Z,12.60
2019-05-01T23:35:22.948Z,12.50
2019-05-01T23:37:53.580Z,12.50
2019-05-01T23:40:23.869Z,12.50
2019-05-01T23:42:54.186Z,12.50
2019-05-01T23:45:24.493Z,12.40
2019-05-01T23:47:54.815Z,12.40
2019-05-01T23:50:25.410Z,12.40
2019-05-01T23:52:55.741Z,12.30
2019-05-01T23:55:26.403Z,12.40
2019-05-01T23:57:56.722Z,12.30
